createdAt,value
2022-12-08T00:02:03.065Z,100964.63
2022-12-08T00:04:51.579Z,100946.09
2022-12-08T00:07:36.993Z,100945.22
2022-12-08T00:10:25.261Z,100932.19
2022-12-08T00:12:54.144Z,100950.81
2022-12-08T00:15:23.752Z,100946.41
2022-12-08T00:17:52.084Z,100931.81
2022-12-08T00:20:20.729Z,100927.63
2022-12-08T00:22:49.528Z,100928.34
2022-12-08T00:25:17.861Z,100936.91
2022-12-08T00:27:46.336Z,100935.75
2022-12-08T00:30:14.771Z,100904.47
2022-12-08T00:32:44.333Z,100907.84
2022-12-08T00:35:12.585Z,100903.53
2022-12-08T00:37:40.805Z,100903.69
2022-12-08T00:40:10.317Z,100888.31
2022-12-08T00:42:38.534Z,100901.03
2022-12-08T00:45:07.777Z,100911.00
2022-12-08T00:47:36.025Z,100904.53
2022-12-08T00:50:06.856Z,100896.81
2022-12-08T00:52:35.850Z,100892.34
2022-12-08T00:55:04.827Z,100899.97
2022-12-08T00:57:33.617Z,100884.22
2022-12-08T01:00:02.247Z,100875.59
2022-12-08T01:02:33.395Z,100896.47
2022-12-08T01:05:01.745Z,100906.59
2022-12-08T01:07:32.796Z,100910.28
2022-12-08T01:10:01.296Z,100899.97
2022-12-08T01:12:31.577Z,100901.44
2022-12-08T01:15:02.440Z,100886.59
2022-12-08T01:17:33.380Z,100887.97
2022-12-08T01:20:02.946Z,100890.03
2022-12-08T01:22:35.360Z,100892.41
2022-12-08T01:25:03.798Z,100899.84
2022-12-08T01:27:32.399Z,100887.03
2022-12-08T01:30:00.800Z,100887.00
2022-12-08T01:32:29.010Z,100876.19
2022-12-08T01:34:57.292Z,100878.88
2022-12-08T01:37:25.567Z,100873.38
2022-12-08T01:39:55.166Z,100879.63
2022-12-08T01:42:24.338Z,100867.97
2022-12-08T01:45:00.986Z,100877.94
2022-12-08T01:47:33.873Z,100871.19
2022-12-08T01:50:02.579Z,100873.88
2022-12-08T01:52:36.296Z,100882.16
2022-12-08T01:55:08.613Z,100852.88
2022-12-08T01:57:41.032Z,100875.88
2022-12-08T02:00:11.681Z,100878.13
2022-12-08T02:02:47.408Z,100864.06
2022-12-08T02:05:15.954Z,100866.44
2022-12-08T02:07:44.976Z,100880.31
2022-12-08T02:10:19.002Z,100883.72
2022-12-08T02:12:47.666Z,100871.00
2022-12-08T02:15:16.389Z,100874.94
2022-12-08T02:17:54.352Z,100884.28
2022-12-08T02:20:36.970Z,100874.09
2022-12-08T02:23:11.397Z,100876.97
2022-12-08T02:25:56.506Z,100869.53
2022-12-08T02:28:40.246Z,100866.16
2022-12-08T02:31:13.456Z,100861.13
2022-12-08T02:33:55.711Z,100856.72
2022-12-08T02:36:26.541Z,100862.13
2022-12-08T02:39:01.215Z,100867.69
2022-12-08T02:41:35.941Z,100861.59
2022-12-08T02:44:09.473Z,100855.16
2022-12-08T02:46:41.701Z,100860.75
2022-12-08T02:49:13.482Z,100848.22
2022-12-08T02:51:41.681Z,100849.94
2022-12-08T02:54:10.005Z,100849.38
2022-12-08T02:56:53.985Z,100853.31
2022-12-08T02:59:29.796Z,100853.25
2022-12-08T03:02:10.960Z,100828.78
2022-12-08T03:04:47.413Z,100814.72
2022-12-08T03:07:23.048Z,100835.28
2022-12-08T03:09:55.524Z,100834.13
2022-12-08T03:12:28.163Z,100842.06
2022-12-08T03:14:58.413Z,100835.66
2022-12-08T03:17:29.732Z,100826.53
2022-12-08T03:19:59.859Z,100823.66
2022-12-08T03:22:29.311Z,100831.97
2022-12-08T03:24:58.305Z,100822.50
2022-12-08T03:27:29.705Z,100817.78
2022-12-08T03:30:00.008Z,100819.13
2022-12-08T03:32:31.707Z,100823.19
2022-12-08T03:35:03.415Z,100811.84
2022-12-08T03:37:32.300Z,100817.59
2022-12-08T03:40:00.490Z,100819.13
2022-12-08T03:42:28.752Z,100822.19
2022-12-08T03:44:57.033Z,100802.22
2022-12-08T03:47:25.230Z,100807.63
2022-12-08T03:49:53.507Z,100814.00
2022-12-08T03:52:23.260Z,100810.31
2022-12-08T03:54:51.525Z,100810.81
2022-12-08T03:57:19.749Z,100812.38
2022-12-08T03:59:48.919Z,100799.81
2022-12-08T04:02:17.637Z,100802.88
2022-12-08T04:04:46.386Z,100796.47
2022-12-08T04:07:14.659Z,100792.94
2022-12-08T04:09:45.092Z,100794.97
2022-12-08T04:12:13.300Z,100786.00
2022-12-08T04:14:41.712Z,100786.13
2022-12-08T04:17:09.951Z,100789.72
2022-12-08T04:19:38.240Z,100791.06
2022-12-08T04:22:06.498Z,100791.59
2022-12-08T04:24:34.729Z,100787.03
2022-12-08T04:27:04.419Z,100794.13
2022-12-08T04:29:32.721Z,100793.28
2022-12-08T04:32:01.176Z,100791.09
2022-12-08T04:34:29.589Z,100789.69
2022-12-08T04:36:57.904Z,100788.31
2022-12-08T04:39:26.145Z,100798.81
2022-12-08T04:41:54.387Z,100783.28
2022-12-08T04:44:24.084Z,100784.63
2022-12-08T04:46:52.406Z,100796.28
2022-12-08T04:49:20.760Z,100776.81
2022-12-08T04:51:49.149Z,100778.50
2022-12-08T04:54:17.385Z,100788.84
2022-12-08T04:56:45.680Z,100783.88
2022-12-08T04:59:14.045Z,100791.19
2022-12-08T05:01:43.799Z,100805.19
2022-12-08T05:04:12.773Z,100801.81
2022-12-08T05:06:41.306Z,100792.00
2022-12-08T05:09:10.101Z,100792.47
2022-12-08T05:11:46.977Z,100785.34
2022-12-08T05:14:18.018Z,100793.94
2022-12-08T05:16:47.981Z,100784.22
2022-12-08T05:19:17.128Z,100738.44
2022-12-08T05:21:45.445Z,100770.94
2022-12-08T05:24:13.773Z,100773.19
2022-12-08T05:26:42.026Z,100781.75
2022-12-08T05:29:10.190Z,100783.47
2022-12-08T05:31:38.727Z,100784.84
2022-12-08T05:34:08.354Z,100775.09
2022-12-08T05:36:37.114Z,100774.34
2022-12-08T05:39:05.627Z,100778.38
2022-12-08T05:41:34.044Z,100774.13
2022-12-08T05:44:02.283Z,100777.53
2022-12-08T05:46:30.674Z,100772.50
2022-12-08T05:49:00.821Z,100761.00
2022-12-08T05:51:30.932Z,100762.88
2022-12-08T05:53:59.476Z,100758.09
2022-12-08T05:56:27.773Z,100756.72
2022-12-08T05:58:56.143Z,100769.59
2022-12-08T06:01:26.096Z,100760.47
2022-12-08T06:03:54.581Z,100764.88
2022-12-08T06:06:23.810Z,100757.41
2022-12-08T06:08:54.312Z,100767.59
2022-12-08T06:11:25.224Z,100779.75
2022-12-08T06:13:53.690Z,100750.19
2022-12-08T06:16:22.440Z,100760.84
2022-12-08T06:18:51.011Z,100766.44
2022-12-08T06:21:19.862Z,100761.03
2022-12-08T06:23:49.839Z,100759.53
2022-12-08T06:26:19.821Z,100775.41
2022-12-08T06:28:48.018Z,100769.03
2022-12-08T06:31:18.257Z,100770.41
2022-12-08T06:33:46.708Z,100767.31
2022-12-08T06:36:16.907Z,100779.84
2022-12-08T06:38:45.651Z,100778.19
2022-12-08T06:41:14.871Z,100777.50
2022-12-08T06:43:45.302Z,100778.72
2022-12-08T06:46:16.197Z,100772.28
2022-12-08T06:48:44.652Z,100768.06
2022-12-08T06:51:14.134Z,100772.28
2022-12-08T06:53:43.345Z,100759.97
2022-12-08T06:56:12.360Z,100764.66
2022-12-08T06:58:40.924Z,100766.06
2022-12-08T07:01:12.433Z,100769.59
2022-12-08T07:03:43.643Z,100758.59
2022-12-08T07:06:17.076Z,100763.69
2022-12-08T07:08:45.420Z,100745.81
2022-12-08T07:11:20.938Z,100746.47
2022-12-08T07:13:50.253Z,100742.78
2022-12-08T07:16:20.144Z,100749.88
2022-12-08T07:18:48.617Z,100757.00
2022-12-08T07:21:18.010Z,100755.63
2022-12-08T07:24:26.731Z,100753.25
2022-12-08T07:26:55.087Z,100746.00
2022-12-08T07:29:26.353Z,100744.66
2022-12-08T07:31:56.358Z,100755.34
2022-12-08T07:34:24.648Z,100764.81
2022-12-08T07:36:52.852Z,100753.97
2022-12-08T07:39:21.128Z,100760.41
2022-12-08T07:41:49.270Z,100760.09
2022-12-08T07:44:17.745Z,100752.63
2022-12-08T07:46:46.216Z,100749.94
2022-12-08T07:49:15.897Z,100757.41
2022-12-08T07:51:44.123Z,100755.34
2022-12-08T07:54:13.616Z,100767.56
2022-12-08T07:56:41.815Z,100758.09
2022-12-08T07:59:10.025Z,100752.16
2022-12-08T08:01:41.393Z,100759.44
2022-12-08T08:04:13.315Z,100751.00
2022-12-08T08:06:43.006Z,100744.25
2022-12-08T08:09:11.297Z,100744.25
2022-12-08T08:11:39.470Z,100742.22
2022-12-08T08:14:07.829Z,100733.94
2022-12-08T08:16:38.533Z,100731.94
2022-12-08T08:19:07.129Z,100729.03
2022-12-08T08:21:50.732Z,100730.03
2022-12-08T08:24:21.670Z,100730.03
2022-12-08T08:26:50.098Z,100725.81
2022-12-08T08:29:18.296Z,100726.00
2022-12-08T08:31:47.073Z,100720.91
2022-12-08T08:34:15.380Z,100728.53
2022-12-08T08:36:43.629Z,100713.09
2022-12-08T08:39:12.708Z,100708.00
2022-12-08T08:41:42.532Z,100713.41
2022-12-08T08:44:10.748Z,100716.09
2022-12-08T08:46:39.021Z,100706.66
2022-12-08T08:49:07.465Z,100711.34
2022-12-08T08:51:35.840Z,100697.81
2022-12-08T08:54:04.144Z,100696.31
2022-12-08T08:56:32.410Z,100701.53
2022-12-08T08:59:03.127Z,100693.09
2022-12-08T09:01:31.666Z,100695.81
2022-12-08T09:04:01.660Z,100695.78
2022-12-08T09:06:30.219Z,100675.63
2022-12-08T09:08:58.562Z,100711.00
2022-12-08T09:11:27.009Z,100700.47
2022-12-08T09:13:55.931Z,100706.97
2022-12-08T09:16:25.972Z,100698.50
2022-12-08T09:18:54.470Z,100706.59
2022-12-08T09:21:24.749Z,100699.50
2022-12-08T09:23:54.161Z,100704.91
2022-12-08T09:26:23.339Z,100705.59
2022-12-08T09:28:51.602Z,100707.59
2022-12-08T09:31:21.261Z,100698.78
2022-12-08T09:33:52.737Z,100703.19
2022-12-08T09:36:22.553Z,100707.13
2022-12-08T09:38:51.879Z,100680.50
2022-12-08T09:41:28.294Z,100685.34
2022-12-08T09:44:06.279Z,100690.28
2022-12-08T09:46:35.595Z,100693.50
2022-12-08T09:49:05.935Z,100695.88
2022-12-08T09:51:37.562Z,100695.03
2022-12-08T09:54:09.924Z,100696.69
2022-12-08T09:56:38.752Z,100697.78
2022-12-08T09:59:18.662Z,100704.84
2022-12-08T10:01:47.091Z,100683.88
2022-12-08T10:04:25.193Z,100683.03
2022-12-08T10:07:04.990Z,100672.34
2022-12-08T10:09:39.397Z,100664.88
2022-12-08T10:12:16.429Z,100670.44
2022-12-08T10:14:46.230Z,100675.38
2022-12-08T10:17:19.350Z,100676.69
2022-12-08T10:19:49.929Z,100676.03
2022-12-08T10:22:22.728Z,100679.25
2022-12-08T10:24:59.703Z,100667.16
2022-12-08T10:27:28.065Z,100665.50
2022-12-08T10:29:56.233Z,100676.34
2022-12-08T10:32:25.346Z,100681.56
2022-12-08T10:35:10.150Z,100664.16
2022-12-08T10:37:39.740Z,100673.81
2022-12-08T10:40:12.292Z,100677.88
2022-12-08T10:42:43.256Z,100675.84
2022-12-08T10:45:22.360Z,100675.66
2022-12-08T10:47:58.232Z,100679.03
2022-12-08T10:50:33.109Z,100672.09
2022-12-08T10:53:02.499Z,100678.69
2022-12-08T10:55:31.442Z,100676.63
2022-12-08T10:57:59.713Z,100686.28
2022-12-08T11:00:29.592Z,100685.94
2022-12-08T11:03:00.735Z,100691.00
2022-12-08T11:05:33.949Z,100687.28
2022-12-08T11:08:03.692Z,100682.00
2022-12-08T11:10:36.628Z,100689.47
2022-12-08T11:13:07.203Z,100685.38
2022-12-08T11:15:38.859Z,100696.22
2022-12-08T11:18:23.787Z,100686.03
2022-12-08T11:21:03.713Z,100672.47
2022-12-08T11:23:32.227Z,100673.09
2022-12-08T11:26:06.746Z,100673.44
2022-12-08T11:28:35.079Z,100674.13
2022-12-08T11:31:08.465Z,100674.41
2022-12-08T11:33:36.874Z,100672.13
2022-12-08T11:36:09.152Z,100672.25
2022-12-08T11:38:43.878Z,100663.22
2022-12-08T11:41:16.365Z,100665.25
2022-12-08T11:43:49.635Z,100672.06
2022-12-08T11:46:21.459Z,100669.34
2022-12-08T11:48:52.325Z,100667.38
2022-12-08T11:51:25.386Z,100669.81
2022-12-08T11:54:08.200Z,100661.34
2022-12-08T11:56:38.398Z,100658.22
2022-12-08T11:59:14.289Z,100642.69
2022-12-08T12:01:42.902Z,100656.59
2022-12-08T12:04:17.679Z,100652.31
2022-12-08T12:07:42.224Z,100646.91
2022-12-08T12:10:24.928Z,100652.81
2022-12-08T12:13:18.492Z,100650.78
2022-12-08T12:16:31.208Z,100651.75
2022-12-08T12:19:01.438Z,100662.13
2022-12-08T12:21:33.408Z,100665.00
2022-12-08T12:24:05.133Z,100667.06
2022-12-08T12:26:38.839Z,100663.97
2022-12-08T12:29:08.865Z,100662.97
2022-12-08T12:31:39.585Z,100667.38
2022-12-08T12:34:10.303Z,100664.28
2022-12-08T12:36:53.171Z,100649.34
2022-12-08T12:39:23.415Z,100661.91
2022-12-08T12:42:01.354Z,100661.91
2022-12-08T12:44:41.005Z,100671.53
2022-12-08T12:47:16.773Z,100664.41
2022-12-08T12:49:53.903Z,100682.56
2022-12-08T12:52:55.709Z,100683.34
2022-12-08T12:55:26.138Z,100677.44
2022-12-08T12:57:57.357Z,100688.66
2022-12-08T13:00:26.996Z,100687.44
2022-12-08T13:02:55.953Z,100685.59
2022-12-08T13:05:27.101Z,100688.13
2022-12-08T13:07:57.024Z,100665.63
2022-12-08T13:10:27.416Z,100684.19
2022-12-08T13:13:09.693Z,100696.38
2022-12-08T13:15:40.189Z,100685.53
2022-12-08T13:18:09.298Z,100686.88
2022-12-08T13:20:43.361Z,100696.06
2022-12-08T13:23:27.716Z,100671.41
2022-12-08T13:26:20.647Z,100699.09
2022-12-08T13:29:16.665Z,100701.13
2022-12-08T13:31:50.890Z,100696.59
2022-12-08T13:34:29.218Z,100700.50
2022-12-08T13:37:04.048Z,100690.16
2022-12-08T13:39:38.254Z,100699.09
2022-12-08T13:42:13.561Z,100693.78
2022-12-08T13:45:24.270Z,100699.09
2022-12-08T13:47:59.932Z,100690.38
2022-12-08T13:59:30.620Z,100694.63
2022-12-08T14:02:03.818Z,100694.63
2022-12-08T14:05:01.271Z,100684.78
2022-12-08T14:07:22.855Z,100693.88
2022-12-08T14:09:51.333Z,100680.97
2022-12-08T14:12:22.313Z,100691.06
2022-12-08T14:15:08.328Z,100683.28
2022-12-08T14:17:41.023Z,100687.50
2022-12-08T14:20:21.414Z,100673.25
2022-12-08T14:22:50.459Z,100684.25
2022-12-08T14:25:19.335Z,100695.25
2022-12-08T14:27:48.356Z,100686.41
2022-12-08T14:30:22.698Z,100691.22
2022-12-08T14:32:54.400Z,100685.44
2022-12-08T14:35:25.342Z,100690.53
2022-12-08T14:37:56.576Z,100694.25
2022-12-08T14:40:26.805Z,100680.88
2022-12-08T14:43:05.635Z,100682.44
2022-12-08T14:45:35.571Z,100690.88
2022-12-08T14:48:26.806Z,100700.66
2022-12-08T14:51:01.879Z,100701.50
2022-12-08T14:53:37.987Z,100696.59
2022-12-08T14:56:10.219Z,100707.78
2022-12-08T14:58:38.513Z,100703.38
2022-12-08T15:01:10.429Z,100711.16
2022-12-08T15:03:40.297Z,100714.06
2022-12-08T15:06:09.880Z,100709.09
2022-12-08T15:08:53.620Z,100713.50
2022-12-08T15:11:36.886Z,100710.16
2022-12-08T15:14:05.390Z,100719.47
2022-12-08T15:16:40.574Z,100715.22
2022-12-08T15:19:23.612Z,100722.66
2022-12-08T15:21:52.309Z,100727.94
2022-12-08T15:24:21.224Z,100730.13
2022-12-08T15:26:51.551Z,100743.31
2022-12-08T15:29:22.709Z,100740.59
2022-12-08T15:31:54.020Z,100735.84
2022-12-08T15:34:23.776Z,100737.03
2022-12-08T15:36:53.592Z,100741.22
2022-12-08T15:39:32.671Z,100737.50
2022-12-08T15:42:01.635Z,100736.59
2022-12-08T15:44:32.662Z,100743.88
2022-12-08T15:47:02.362Z,100740.53
2022-12-08T15:49:32.136Z,100731.00
2022-12-08T15:52:11.251Z,100745.97
2022-12-08T15:54:40.358Z,100751.19
2022-12-08T15:57:19.470Z,100745.97
2022-12-08T15:59:48.679Z,100755.97
2022-12-08T16:02:22.368Z,100756.44
2022-12-08T16:07:41.565Z,100761.50
2022-12-08T16:10:12.827Z,100751.31
2022-12-08T16:13:55.372Z,100752.97
2022-12-08T16:15:58.635Z,100747.00
2022-12-08T16:18:30.104Z,100748.72
2022-12-08T16:23:55.734Z,100749.78
2022-12-08T16:27:06.817Z,100753.91
2022-12-08T16:29:19.604Z,100740.91
2022-12-08T16:31:48.296Z,100737.44
2022-12-08T16:34:16.872Z,100742.13
2022-12-08T16:36:46.575Z,100751.41
2022-12-08T16:39:15.323Z,100743.25
2022-12-08T16:42:01.347Z,100738.72
2022-12-08T16:44:29.690Z,100748.69
2022-12-08T16:46:58.090Z,100742.03
2022-12-08T16:49:26.626Z,100746.47
2022-12-08T16:51:56.330Z,100744.84
2022-12-08T16:54:24.661Z,100750.09
2022-12-08T16:56:52.853Z,100745.88
2022-12-08T16:59:21.145Z,100748.75
2022-12-08T17:01:49.398Z,100747.75
2022-12-08T17:04:33.150Z,100740.72
2022-12-08T17:07:03.266Z,100747.19
2022-12-08T17:09:32.499Z,100731.63
2022-12-08T17:12:04.109Z,100735.66
2022-12-08T17:14:34.822Z,100739.34
2022-12-08T17:17:03.348Z,100746.09
2022-12-08T17:19:32.385Z,100742.81
2022-12-08T17:22:00.760Z,100739.63
2022-12-08T17:24:30.466Z,100744.00
2022-12-08T17:27:00.159Z,100751.44
2022-12-08T17:29:28.557Z,100750.81
2022-12-08T17:31:56.830Z,100756.97
2022-12-08T17:34:25.184Z,100749.84
2022-12-08T17:36:53.605Z,100737.53
2022-12-08T17:39:21.928Z,100752.84
2022-12-08T17:41:51.586Z,100753.56
2022-12-08T17:44:21.350Z,100754.41
2022-12-08T17:46:52.978Z,100744.00
2022-12-08T17:49:23.582Z,100744.00
2022-12-08T17:51:54.966Z,100750.22
2022-12-08T17:54:23.544Z,100752.25
2022-12-08T17:56:53.224Z,100760.25
2022-12-08T17:59:21.863Z,100753.41
2022-12-08T18:01:50.599Z,100759.97
2022-12-08T18:04:18.952Z,100761.69
2022-12-08T18:06:47.352Z,100763.19
2022-12-08T18:09:16.495Z,100755.19
2022-12-08T18:11:46.387Z,100756.88
2022-12-08T18:14:16.901Z,100749.44
2022-12-08T18:16:46.483Z,100756.59
2022-12-08T18:19:15.847Z,100756.03
2022-12-08T18:21:44.472Z,100763.66
2022-12-08T18:24:18.374Z,100764.66
2022-12-08T18:26:46.745Z,100765.97
2022-12-08T18:29:16.423Z,100770.03
2022-12-08T18:31:44.617Z,100767.13
2022-12-08T18:34:12.943Z,100776.44
2022-12-08T18:36:41.209Z,100762.38
2022-12-08T18:39:22.721Z,100760.28
2022-12-08T18:41:51.080Z,100780.91
2022-12-08T18:44:21.086Z,100789.56
2022-12-08T18:46:49.509Z,100792.09
2022-12-08T18:49:19.252Z,100786.19
2022-12-08T18:51:47.857Z,100789.06
2022-12-08T18:54:16.452Z,100786.63
2022-12-08T18:56:44.906Z,100790.22
2022-12-08T18:59:13.778Z,100784.97
2022-12-08T19:01:43.813Z,100779.88
2022-12-08T19:04:28.724Z,100778.19
2022-12-08T19:06:58.275Z,100780.56
2022-12-08T19:09:27.160Z,100777.47
2022-12-08T19:11:55.540Z,100788.50
2022-12-08T19:14:28.291Z,100781.75
2022-12-08T19:16:58.844Z,100785.63
2022-12-08T19:19:27.598Z,100790.69
2022-12-08T19:21:55.817Z,100793.06
2022-12-08T19:24:24.443Z,100771.63
2022-12-08T19:26:52.877Z,100792.38
2022-12-08T19:29:21.423Z,100786.94
2022-12-08T19:31:49.784Z,100792.75
2022-12-08T19:34:19.687Z,100777.47
2022-12-08T19:36:47.865Z,100792.75
2022-12-08T19:39:35.779Z,100779.31
2022-12-08T19:42:22.036Z,100799.91
2022-12-08T19:44:56.088Z,100793.06
2022-12-08T19:47:26.029Z,100796.31
2022-12-08T19:50:17.009Z,100795.09
2022-12-08T19:52:45.676Z,100801.00
2022-12-08T19:55:14.710Z,100807.31
2022-12-08T19:57:43.607Z,100804.97
2022-12-08T20:00:13.669Z,100800.16
2022-12-08T20:02:42.007Z,100805.59
2022-12-08T20:05:13.441Z,100802.25
2022-12-08T20:07:41.749Z,100814.44
2022-12-08T20:10:14.292Z,100804.88
2022-12-08T20:12:42.601Z,100805.91
2022-12-08T20:15:11.800Z,100812.94
2022-12-08T20:17:42.143Z,100817.47
2022-12-08T20:20:16.181Z,100804.50
2022-12-08T20:22:45.446Z,100810.63
2022-12-08T20:25:14.221Z,100803.38
2022-12-08T20:27:42.916Z,100807.06
2022-12-08T20:30:17.045Z,100800.94
2022-12-08T20:32:46.592Z,100802.66
2022-12-08T20:35:16.338Z,100781.88
2022-12-08T20:37:45.074Z,100803.38
2022-12-08T20:40:13.848Z,100800.66
2022-12-08T20:42:42.317Z,100800.31
2022-12-08T20:45:10.987Z,100805.09
2022-12-08T20:47:39.372Z,100807.13
2022-12-08T20:50:09.208Z,100815.28
2022-12-08T20:52:41.831Z,100818.50
2022-12-08T20:55:11.204Z,100822.25
2022-12-08T20:57:39.527Z,100821.69
2022-12-08T21:00:09.453Z,100824.81
2022-12-08T21:02:43.322Z,100817.28
2022-12-08T21:05:15.686Z,100825.16
2022-12-08T21:07:45.550Z,100815.59
2022-12-08T21:10:13.834Z,100808.56
2022-12-08T21:12:42.204Z,100812.41
2022-12-08T21:15:12.829Z,100800.94
2022-12-08T21:17:41.418Z,100808.47
2022-12-08T21:20:10.673Z,100809.13
2022-12-08T21:22:40.377Z,100797.59
2022-12-08T21:25:10.884Z,100785.00
2022-12-08T21:27:39.740Z,100795.88
2022-12-08T21:30:10.669Z,100798.63
2022-12-08T21:32:40.214Z,100791.38
2022-12-08T21:35:09.783Z,100797.84
2022-12-08T21:37:38.679Z,100791.94
2022-12-08T21:40:08.444Z,100805.28
2022-12-08T21:42:47.636Z,100815.31
2022-12-08T21:45:17.355Z,100794.84
2022-12-08T21:47:45.983Z,100797.28
2022-12-08T21:50:15.050Z,100803.56
2022-12-08T21:52:45.086Z,100801.88
2022-12-08T21:55:14.368Z,100794.00
2022-12-08T21:57:44.552Z,100789.41
2022-12-08T22:00:16.556Z,100781.81
2022-12-08T22:02:45.684Z,100787.06
2022-12-08T22:05:14.328Z,100781.41
2022-12-08T22:07:43.679Z,100792.31
2022-12-08T22:10:12.812Z,100795.69
2022-12-08T22:12:41.413Z,100800.41
2022-12-08T22:15:12.365Z,100797.00
2022-12-08T22:17:42.278Z,100787.81
2022-12-08T22:20:12.999Z,100802.06
2022-12-08T22:22:41.356Z,100800.03
2022-12-08T22:25:12.109Z,100805.84
2022-12-08T22:27:42.612Z,100806.50
2022-12-08T22:30:13.195Z,100805.47
2022-12-08T22:32:42.070Z,100805.75
2022-12-08T22:35:11.661Z,100811.19
2022-12-08T22:37:39.865Z,100803.88
2022-12-08T22:40:10.032Z,100815.13
2022-12-08T22:42:38.640Z,100822.38
2022-12-08T22:45:07.822Z,100830.16
2022-12-08T22:47:37.476Z,100820.28
2022-12-08T22:50:07.274Z,100810.44
2022-12-08T22:52:36.129Z,100822.00
2022-12-08T22:55:04.311Z,100824.63
2022-12-08T22:57:32.768Z,100825.47
2022-12-08T23:00:00.997Z,100838.88
2022-12-08T23:02:29.347Z,100816.72
2022-12-08T23:04:59.168Z,100821.16
2022-12-08T23:07:28.187Z,100830.81
2022-12-08T23:09:56.494Z,100825.53
2022-12-08T23:12:25.420Z,100825.81
2022-12-08T23:14:53.671Z,100825.19
2022-12-08T23:17:22.093Z,100831.09
2022-12-08T23:19:50.544Z,100834.66
2022-12-08T23:22:20.162Z,100834.94
2022-12-08T23:24:48.547Z,100842.44
2022-12-08T23:27:16.868Z,100833.59
2022-12-08T23:29:45.290Z,100838.69
2022-12-08T23:32:13.584Z,100830.53
2022-12-08T23:34:41.925Z,100827.41
2022-12-08T23:37:10.261Z,100824.13
2022-12-08T23:39:40.481Z,100833.25
2022-12-08T23:42:08.932Z,100834.47
2022-12-08T23:44:37.348Z,100825.53
2022-12-08T23:47:05.708Z,100832.13
2022-12-08T23:49:34.639Z,100834.94
2022-12-08T23:52:02.878Z,100836.34
2022-12-08T23:54:31.331Z,100819.81
2022-12-08T23:57:01.067Z,100832.41
2022-12-08T23:59:29.490Z,100831.38
